Terminal Aerodrome Forecast
Issued by NWS

Home | Current Version | Previous Version | Text Only | Print | Product List | Glossary On
Versions: 1 2 3 4 5 6 7 8 9 10 11 12 13 14 15 16 17 18 19
400
FTUS43 KDTX 260538
TAFMBS
TAF
KMBS 260538Z 2606/2706 25006KT P6SM SCT045 OVC060
     FM261500 27016G26KT P6SM BKN050 PROB30 2620/2623 5SM -SHRA
      OVC035
     FM270200 28007KT P6SM SCT040=

USA.gov is the U.S. government's official web portal to all federal, state and local government web resources and services.